Time;durP1;ratioP1;P1;durP2;ratioP2;P2;SDS_P1;SDS_P2;PMS_P1;PMS_P2;Temp;Humidity;BMP_temperature;BMP_pressure;BME280_temperature;BME280_humidity;BME280_pressure;Samples;Min_cycle;Max_cycle;Signal;HPM_P1;HPM_P2
2022/07/09 00:01:49;;;;;;;6.20;1.40;;;;;;;;;;4751671;30;20048;-58
2022/07/09 00:04:16;;;;;;;5.22;1.42;;;;;;;;;;4751358;30;20472;-58
2022/07/09 00:06:43;;;;;;;1.95;0.90;;;;;;;;;;4751808;30;20401;-58
2022/07/09 00:09:12;;;;;;;2.50;1.30;;;;;;;;;;4751826;30;20066;-58
2022/07/09 00:11:39;;;;;;;4.30;1.30;;;;;;;;;;4751838;30;20539;-59
2022/07/09 00:14:06;;;;;;;3.25;1.08;;;;;;;;;;4751762;30;20044;-58
2022/07/09 00:16:36;;;;;;;1.88;0.90;;;;;;;;;;4751632;30;20048;-58
2022/07/09 00:19:04;;;;;;;1.60;1.02;;;;;;;;;;4751269;30;20052;-58
2022/07/09 00:21:31;;;;;;;2.22;1.42;;;;;;;;;;4751226;30;20167;-58
2022/07/09 00:23:58;;;;;;;3.85;0.90;;;;;;;;;;4751460;30;20060;-58
2022/07/09 00:26:26;;;;;;;1.73;0.80;;;;;;;;;;4751421;30;20052;-58
2022/07/09 00:28:53;;;;;;;3.72;0.85;;;;;;;;;;4751296;30;20086;-58
2022/07/09 00:31:23;;;;;;;3.45;1.00;;;;;;;;;;4751394;30;20071;-59
2022/07/09 00:33:50;;;;;;;1.33;1.00;;;;;;;;;;4751464;30;20044;-59
2022/07/09 00:36:17;;;;;;;1.63;0.75;;;;;;;;;;4751000;30;20052;-58
2022/07/09 00:38:45;;;;;;;1.10;0.90;;;;;;;;;;4751409;30;20055;-58
2022/07/09 00:41:12;;;;;;;1.13;0.85;;;;;;;;;;4751394;30;20058;-58
2022/07/09 00:43:47;;;;;;;2.10;1.45;;;;;;;;;;4751368;30;20444;-58
2022/07/09 00:46:15;;;;;;;1.83;0.93;;;;;;;;;;4751039;30;20447;-57
2022/07/09 00:48:43;;;;;;;2.97;1.15;;;;;;;;;;4751114;30;20086;-58
2022/07/09 00:51:13;;;;;;;1.70;0.70;;;;;;;;;;4751164;30;20040;-57
2022/07/09 00:53:40;;;;;;;4.82;0.90;;;;;;;;;;4751231;30;20071;-57
2022/07/09 00:56:09;;;;;;;2.20;1.00;;;;;;;;;;4751016;30;20044;-56
2022/07/09 00:58:36;;;;;;;1.38;1.00;;;;;;;;;;4750781;30;20494;-58
2022/07/09 01:01:06;;;;;;;2.05;1.20;;;;;;;;;;4750651;30;20056;-58
2022/07/09 01:03:33;;;;;;;1.90;1.10;;;;;;;;;;4750612;30;20056;-58
2022/07/09 01:06:00;;;;;;;3.65;0.90;;;;;;;;;;4751058;30;20048;-59
2022/07/09 01:08:27;;;;;;;1.67;0.80;;;;;;;;;;4750676;30;20044;-58
2022/07/09 01:10:55;;;;;;;3.25;1.20;;;;;;;;;;4750891;30;20052;-58
2022/07/09 01:13:24;;;;;;;2.47;1.02;;;;;;;;;;4750685;30;20075;-58
2022/07/09 01:15:52;;;;;;;1.25;0.80;;;;;;;;;;4750613;30;20056;-58
2022/07/09 01:18:19;;;;;;;2.17;1.10;;;;;;;;;;4750738;30;20079;-59
2022/07/09 01:20:46;;;;;;;1.50;1.00;;;;;;;;;;4750753;30;20060;-58
2022/07/09 01:23:14;;;;;;;2.63;1.60;;;;;;;;;;4750575;30;20051;-55
2022/07/09 01:25:45;;;;;;;2.30;0.75;;;;;;;;;;4750540;30;20058;-58
2022/07/09 01:28:13;;;;;;;1.90;0.85;;;;;;;;;;4750489;30;20059;-58
2022/07/09 01:30:41;;;;;;;3.97;1.50;;;;;;;;;;4750586;30;20409;-58
2022/07/09 01:33:12;;;;;;;3.42;1.30;;;;;;;;;;4748400;30;20056;-58
2022/07/09 01:35:40;;;;;;;6.60;0.90;;;;;;;;;;4750256;30;20140;-59
2022/07/09 01:38:07;;;;;;;2.65;1.00;;;;;;;;;;4750267;30;20048;-57
2022/07/09 01:40:34;;;;;;;1.70;1.55;;;;;;;;;;4750337;30;20131;-59
2022/07/09 01:43:01;;;;;;;4.78;0.90;;;;;;;;;;4750186;30;20048;-58
2022/07/09 01:45:29;;;;;;;2.45;1.00;;;;;;;;;;4749913;30;20131;-58
2022/07/09 01:47:56;;;;;;;3.38;1.13;;;;;;;;;;4750236;30;20048;-58
2022/07/09 01:50:23;;;;;;;0.90;0.75;;;;;;;;;;4747364;30;20048;-57
2022/07/09 01:52:50;;;;;;;1.73;1.00;;;;;;;;;;4750192;30;20059;-59
2022/07/09 01:55:18;;;;;;;4.38;1.00;;;;;;;;;;4749971;30;20060;-58
2022/07/09 01:57:45;;;;;;;3.63;1.30;;;;;;;;;;4749877;30;20064;-58
2022/07/09 02:00:13;;;;;;;2.53;1.13;;;;;;;;;;4750103;30;20105;-59
2022/07/09 02:02:42;;;;;;;2.15;1.10;;;;;;;;;;4749987;30;20059;-58
2022/07/09 02:05:09;;;;;;;1.63;1.00;;;;;;;;;;4750318;30;20047;-59
2022/07/09 02:07:37;;;;;;;1.10;0.70;;;;;;;;;;4739817;30;20406;-59
2022/07/09 02:10:05;;;;;;;2.55;0.90;;;;;;;;;;4732135;30;20079;-58
2022/07/09 02:12:32;;;;;;;1.75;0.90;;;;;;;;;;4731537;30;20047;-59
2022/07/09 02:14:59;;;;;;;1.30;0.77;;;;;;;;;;4732168;30;20048;-58
2022/07/09 02:17:26;;;;;;;2.28;1.30;;;;;;;;;;4732308;30;20041;-58
2022/07/09 02:19:54;;;;;;;1.42;1.08;;;;;;;;;;4731963;30;20414;-58
2022/07/09 02:22:21;;;;;;;1.48;0.95;;;;;;;;;;4732169;30;20037;-59
2022/07/09 02:24:48;;;;;;;1.70;1.10;;;;;;;;;;4731917;30;20047;-58
2022/07/09 02:27:16;;;;;;;1.67;1.10;;;;;;;;;;4732179;30;20052;-58
2022/07/09 02:29:43;;;;;;;1.67;0.77;;;;;;;;;;4732212;30;20090;-56
2022/07/09 02:32:11;;;;;;;1.65;1.35;;;;;;;;;;4732049;30;20055;-58
2022/07/09 02:34:41;;;;;;;1.45;0.95;;;;;;;;;;4731734;30;20052;-59
2022/07/09 02:37:10;;;;;;;0.90;0.70;;;;;;;;;;4732068;30;20075;-59
2022/07/09 02:39:37;;;;;;;0.98;0.73;;;;;;;;;;4732160;30;20041;-58
2022/07/09 02:42:05;;;;;;;1.08;0.90;;;;;;;;;;4731773;30;20045;-58
2022/07/09 02:44:32;;;;;;;2.25;0.80;;;;;;;;;;4731892;30;20303;-58
2022/07/09 02:46:59;;;;;;;1.25;0.90;;;;;;;;;;4731929;30;20048;-58
2022/07/09 02:49:27;;;;;;;1.80;0.70;;;;;;;;;;4731835;30;20121;-58
2022/07/09 02:51:57;;;;;;;1.52;0.90;;;;;;;;;;4732020;30;20417;-59
2022/07/09 02:54:24;;;;;;;1.02;0.80;;;;;;;;;;4731886;30;20052;-58
2022/07/09 02:56:51;;;;;;;0.70;0.70;;;;;;;;;;4731596;30;20064;-58
2022/07/09 02:59:19;;;;;;;2.92;0.88;;;;;;;;;;4732009;30;20485;-58
2022/07/09 03:01:47;;;;;;;1.98;0.80;;;;;;;;;;4731730;30;20057;-58
2022/07/09 03:04:14;;;;;;;2.03;0.88;;;;;;;;;;4731645;30;20047;-57
2022/07/09 03:06:41;;;;;;;1.40;0.80;;;;;;;;;;4732134;30;20045;-58
2022/07/09 03:09:09;;;;;;;1.27;0.70;;;;;;;;;;4731856;30;20044;-58
2022/07/09 03:11:36;;;;;;;1.88;1.00;;;;;;;;;;4731855;30;20410;-58
2022/07/09 03:14:04;;;;;;;1.75;1.27;;;;;;;;;;4731662;30;20118;-59
2022/07/09 03:16:31;;;;;;;3.38;0.90;;;;;;;;;;4731543;30;20535;-58
2022/07/09 03:18:58;;;;;;;1.15;0.77;;;;;;;;;;4731710;30;20048;-57
2022/07/09 03:21:25;;;;;;;0.93;0.65;;;;;;;;;;4731626;30;20465;-58
2022/07/09 03:23:53;;;;;;;1.65;0.77;;;;;;;;;;4734337;30;20056;-56
2022/07/09 03:26:23;;;;;;;0.75;0.52;;;;;;;;;;4725252;30;20502;-58
2022/07/09 03:28:50;;;;;;;3.80;0.98;;;;;;;;;;4717263;30;20045;-59
2022/07/09 03:31:17;;;;;;;0.90;0.70;;;;;;;;;;4717249;30;20079;-59
2022/07/09 03:33:45;;;;;;;1.33;0.80;;;;;;;;;;4717612;30;20053;-59
2022/07/09 03:36:16;;;;;;;4.13;0.70;;;;;;;;;;4717136;30;20084;-58
2022/07/09 03:38:43;;;;;;;2.15;0.70;;;;;;;;;;4717471;30;20444;-54
2022/07/09 03:41:11;;;;;;;2.22;0.68;;;;;;;;;;4716899;30;20080;-57
2022/07/09 03:43:38;;;;;;;0.95;0.70;;;;;;;;;;4717165;30;20461;-58
2022/07/09 03:46:05;;;;;;;1.70;0.70;;;;;;;;;;4701705;30;20104;-56
2022/07/09 03:48:34;;;;;;;2.70;0.60;;;;;;;;;;4717159;30;20099;-59
2022/07/09 03:51:03;;;;;;;2.78;0.80;;;;;;;;;;4738823;30;20045;-54
2022/07/09 03:53:30;;;;;;;2.10;0.70;;;;;;;;;;4752067;30;20076;-58
2022/07/09 03:55:58;;;;;;;0.65;0.55;;;;;;;;;;4752118;30;20536;-58
2022/07/09 03:58:25;;;;;;;1.80;0.88;;;;;;;;;;4751754;30;20052;-58
2022/07/09 04:00:53;;;;;;;0.57;0.52;;;;;;;;;;4751654;30;20055;-59
2022/07/09 04:03:20;;;;;;;2.50;1.00;;;;;;;;;;4751859;30;20533;-59
2022/07/09 04:05:47;;;;;;;2.78;0.88;;;;;;;;;;4751898;30;20052;-58
2022/07/09 04:08:15;;;;;;;2.15;0.57;;;;;;;;;;4735626;30;20501;-58
2022/07/09 04:10:42;;;;;;;1.33;0.77;;;;;;;;;;4751984;30;20055;-58
2022/07/09 04:13:09;;;;;;;2.65;0.60;;;;;;;;;;4752066;30;20548;-58
2022/07/09 04:15:40;;;;;;;1.05;0.68;;;;;;;;;;4751850;30;20139;-59
2022/07/09 04:18:08;;;;;;;0.90;0.60;;;;;;;;;;4751460;30;20044;-59
2022/07/09 04:20:35;;;;;;;1.15;0.65;;;;;;;;;;4751752;30;20052;-56
2022/07/09 04:23:02;;;;;;;1.58;0.57;;;;;;;;;;4751320;30;20052;-58
2022/07/09 04:25:32;;;;;;;1.35;0.60;;;;;;;;;;4751525;30;20044;-58
2022/07/09 04:27:59;;;;;;;1.13;0.50;;;;;;;;;;4735835;30;20135;-58
2022/07/09 04:30:27;;;;;;;1.55;0.55;;;;;;;;;;4751647;30;20056;-59
2022/07/09 04:32:56;;;;;;;0.50;0.40;;;;;;;;;;4735670;30;20055;-58
2022/07/09 04:35:24;;;;;;;2.55;0.60;;;;;;;;;;4750474;30;20056;-59
2022/07/09 04:37:51;;;;;;;21.95;11.50;;;;;;;;;;4751361;30;20144;-59
2022/07/09 04:40:18;;;;;;;7.57;4.25;;;;;;;;;;4751161;30;20399;-59
2022/07/09 04:42:48;;;;;;;4.05;1.75;;;;;;;;;;4751467;30;20560;-58
2022/07/09 04:45:16;;;;;;;0.57;0.45;;;;;;;;;;4750880;30;20517;-58
2022/07/09 04:47:43;;;;;;;1.20;0.57;;;;;;;;;;4751344;30;20524;-57
2022/07/09 04:50:11;;;;;;;90.68;50.60;;;;;;;;;;4748457;30;20044;-59
2022/07/09 04:52:39;;;;;;;3.30;1.55;;;;;;;;;;4751003;30;20052;-54
2022/07/09 04:55:07;;;;;;;1.30;0.50;;;;;;;;;;4751022;30;20086;-58
2022/07/09 04:57:36;;;;;;;0.75;0.40;;;;;;;;;;4750702;30;20056;-59
2022/07/09 05:00:04;;;;;;;0.55;0.40;;;;;;;;;;4751110;30;20125;-59
2022/07/09 05:02:32;;;;;;;0.82;0.40;;;;;;;;;;4751015;30;20445;-59
2022/07/09 05:04:59;;;;;;;1.27;0.50;;;;;;;;;;4751212;30;20080;-59
2022/07/09 05:07:27;;;;;;;2.63;0.50;;;;;;;;;;4750692;30;20057;-59
2022/07/09 05:09:54;;;;;;;0.57;0.40;;;;;;;;;;4750885;30;20058;-60
2022/07/09 05:12:21;;;;;;;8.10;4.93;;;;;;;;;;4750879;30;20567;-59
2022/07/09 05:14:49;;;;;;;9.88;3.65;;;;;;;;;;4750804;30;20508;-59
2022/07/09 05:17:16;;;;;;;2.35;0.68;;;;;;;;;;4750816;30;20044;-58
2022/07/09 05:19:43;;;;;;;0.82;0.50;;;;;;;;;;4750496;30;20254;-59
2022/07/09 05:22:11;;;;;;;0.80;0.57;;;;;;;;;;4750665;30;20056;-59
2022/07/09 05:24:38;;;;;;;2.78;0.43;;;;;;;;;;4750366;30;20051;-59
2022/07/09 05:27:06;;;;;;;1.38;0.40;;;;;;;;;;4740319;30;20044;-59
2022/07/09 05:29:33;;;;;;;1.45;0.50;;;;;;;;;;4732606;30;20177;-58
2022/07/09 05:32:00;;;;;;;0.77;0.40;;;;;;;;;;4732612;30;20045;-59
2022/07/09 05:34:28;;;;;;;0.90;0.70;;;;;;;;;;4732634;30;20573;-58
2022/07/09 05:36:56;;;;;;;1.50;0.40;;;;;;;;;;4732923;30;20058;-59
2022/07/09 05:39:23;;;;;;;73.80;42.28;;;;;;;;;;4732537;30;20510;-60
2022/07/09 05:41:50;;;;;;;9.40;3.95;;;;;;;;;;4733749;30;20037;-58
2022/07/09 05:44:18;;;;;;;0.85;0.45;;;;;;;;;;4734059;30;20061;-56
2022/07/09 05:46:50;;;;;;;1.17;0.30;;;;;;;;;;4733761;30;20053;-59
2022/07/09 05:49:18;;;;;;;1.52;0.40;;;;;;;;;;4733984;30;20044;-59
2022/07/09 05:51:45;;;;;;;0.95;0.50;;;;;;;;;;4749853;30;20048;-57
2022/07/09 05:54:14;;;;;;;2.45;0.50;;;;;;;;;;4752016;30;20052;-59
2022/07/09 05:56:41;;;;;;;1.42;0.50;;;;;;;;;;4751250;30;20066;-57
2022/07/09 05:59:09;;;;;;;1.83;0.50;;;;;;;;;;4751380;30;20059;-59
2022/07/09 06:01:41;;;;;;;4.00;0.70;;;;;;;;;;4751088;30;20056;-58
2022/07/09 06:04:09;;;;;;;1.23;0.50;;;;;;;;;;4739486;30;20110;-59
2022/07/09 06:06:38;;;;;;;1.52;0.57;;;;;;;;;;4733430;30;20075;-58
2022/07/09 06:09:05;;;;;;;0.50;0.45;;;;;;;;;;4733651;30;20114;-59
2022/07/09 06:11:35;;;;;;;0.73;0.52;;;;;;;;;;4733352;30;20050;-59
2022/07/09 06:14:03;;;;;;;0.85;0.50;;;;;;;;;;4733556;30;20374;-58
2022/07/09 06:16:30;;;;;;;2.35;0.73;;;;;;;;;;4734062;30;20052;-59
2022/07/09 06:18:57;;;;;;;1.55;0.57;;;;;;;;;;4733606;30;20056;-60
2022/07/09 06:21:25;;;;;;;4.93;0.50;;;;;;;;;;4733524;30;20045;-59
2022/07/09 06:23:52;;;;;;;1.95;0.68;;;;;;;;;;4733447;30;20052;-59
2022/07/09 06:26:19;;;;;;;0.50;0.50;;;;;;;;;;4733612;30;20045;-60
2022/07/09 06:28:46;;;;;;;14.70;0.80;;;;;;;;;;4733845;30;20055;-59
2022/07/09 06:31:14;;;;;;;1.17;0.60;;;;;;;;;;4733385;30;20048;-53
2022/07/09 06:33:41;;;;;;;0.47;0.43;;;;;;;;;;4733224;30;20122;-58
2022/07/09 06:36:08;;;;;;;3.78;0.50;;;;;;;;;;4733470;30;20181;-57
2022/07/09 06:39:44;;;;;;;121.40;62.50;;;;;;;;;;4733803;30;20049;-60
2022/07/09 06:41:23;;;;;;;21.20;14.70;;;;;;;;;;4733332;30;20533;-59
2022/07/09 06:43:50;;;;;;;3.95;1.92;;;;;;;;;;4733385;30;20512;-59
2022/07/09 06:46:17;;;;;;;1.30;0.65;;;;;;;;;;4717314;30;20056;-60
2022/07/09 06:48:45;;;;;;;1.20;0.60;;;;;;;;;;4733715;30;20051;-60
2022/07/09 06:51:12;;;;;;;1.83;0.60;;;;;;;;;;4745099;30;20049;-57
2022/07/09 06:53:39;;;;;;;2.15;0.75;;;;;;;;;;4749637;30;20059;-59
2022/07/09 06:56:07;;;;;;;3.67;0.90;;;;;;;;;;4749368;30;20088;-58
2022/07/09 06:58:34;;;;;;;1.15;0.57;;;;;;;;;;4751683;30;20112;-59
2022/07/09 07:01:02;;;;;;;1.10;0.70;;;;;;;;;;4753023;30;20052;-58
2022/07/09 07:03:30;;;;;;;1.50;0.63;;;;;;;;;;4717448;30;20052;-59
2022/07/09 07:05:57;;;;;;;1.35;0.60;;;;;;;;;;4717555;30;20409;-54
2022/07/09 07:08:24;;;;;;;1.52;0.52;;;;;;;;;;4717881;30;20502;-59
2022/07/09 07:10:52;;;;;;;1.52;0.65;;;;;;;;;;4717648;30;20413;-59
2022/07/09 07:13:19;;;;;;;1.55;0.70;;;;;;;;;;4701485;30;20045;-59
2022/07/09 07:15:49;;;;;;;1.00;0.50;;;;;;;;;;4717729;30;20057;-58
2022/07/09 07:18:16;;;;;;;1.83;0.73;;;;;;;;;;4717687;30;20049;-59
2022/07/09 07:20:45;;;;;;;1.10;0.70;;;;;;;;;;4717572;30;20595;-56
2022/07/09 07:23:12;;;;;;;2.33;0.73;;;;;;;;;;4702236;30;20102;-58
2022/07/09 07:25:39;;;;;;;1.30;0.65;;;;;;;;;;4717572;30;20084;-59
2022/07/09 07:28:07;;;;;;;0.50;0.50;;;;;;;;;;4717508;30;20406;-59
2022/07/09 07:30:35;;;;;;;0.80;0.50;;;;;;;;;;4701901;30;20103;-59
2022/07/09 07:33:02;;;;;;;1.42;0.68;;;;;;;;;;4717359;30;20044;-59
2022/07/09 07:35:30;;;;;;;0.77;0.50;;;;;;;;;;4717151;30;20049;-59
2022/07/09 07:37:59;;;;;;;1.15;0.65;;;;;;;;;;4717183;30;20120;-58
2022/07/09 07:40:26;;;;;;;1.50;0.55;;;;;;;;;;4701643;30;20037;-59
2022/07/09 07:42:53;;;;;;;1.10;0.50;;;;;;;;;;4717278;30;20526;-59
2022/07/09 07:45:20;;;;;;;6.82;4.03;;;;;;;;;;4717046;30;20049;-58
2022/07/09 07:47:50;;;;;;;1.80;0.93;;;;;;;;;;4717023;30;20053;-59
2022/07/09 07:50:17;;;;;;;1.33;0.40;;;;;;;;;;4728096;30;20048;-59
2022/07/09 07:52:45;;;;;;;0.73;0.60;;;;;;;;;;4738127;30;20045;-57
2022/07/09 07:55:14;;;;;;;0.40;0.40;;;;;;;;;;4734762;30;20071;-56
2022/07/09 07:57:42;;;;;;;1.98;0.47;;;;;;;;;;4734104;30;20055;-59
2022/07/09 08:00:10;;;;;;;1.02;0.50;;;;;;;;;;4718791;30;20513;-59
2022/07/09 08:02:38;;;;;;;1.65;0.50;;;;;;;;;;4733831;30;20056;-60
2022/07/09 08:05:06;;;;;;;1.08;0.40;;;;;;;;;;4717954;30;20060;-59
2022/07/09 08:07:34;;;;;;;1.35;0.47;;;;;;;;;;4734266;30;20098;-59
2022/07/09 08:10:01;;;;;;;0.95;0.40;;;;;;;;;;4732391;30;20410;-59
2022/07/09 08:12:29;;;;;;;1.63;0.40;;;;;;;;;;4734186;30;20053;-59
2022/07/09 08:14:56;;;;;;;1.02;0.50;;;;;;;;;;4719026;30;20456;-59
2022/07/09 08:17:24;;;;;;;1.30;0.52;;;;;;;;;;4718501;30;20055;-60
2022/07/09 08:19:51;;;;;;;1.20;0.52;;;;;;;;;;4734149;30;20061;-59
2022/07/09 08:22:19;;;;;;;0.63;0.40;;;;;;;;;;4734159;30;20053;-59
2022/07/09 08:24:46;;;;;;;0.80;0.47;;;;;;;;;;4733973;30;20084;-59
2022/07/09 08:27:13;;;;;;;1.77;0.50;;;;;;;;;;4734073;30;20060;-53
2022/07/09 08:29:40;;;;;;;4.15;0.50;;;;;;;;;;4718349;30;20470;-59
2022/07/09 08:32:08;;;;;;;1.45;0.50;;;;;;;;;;4733293;30;20060;-59
2022/07/09 08:34:35;;;;;;;2.50;0.63;;;;;;;;;;4733870;30;20052;-59
2022/07/09 08:37:03;;;;;;;0.80;0.43;;;;;;;;;;4733585;30;20410;-59
2022/07/09 08:39:30;;;;;;;1.30;0.63;;;;;;;;;;4733820;30;20037;-59
2022/07/09 08:41:59;;;;;;;1.33;0.52;;;;;;;;;;4733375;30;20049;-59
2022/07/09 08:44:33;;;;;;;4.22;0.60;;;;;;;;;;4733618;30;20049;-59
2022/07/09 08:47:01;;;;;;;1.90;0.60;;;;;;;;;;4732251;30;20057;-59
2022/07/09 08:49:30;;;;;;;0.98;0.50;;;;;;;;;;4733420;30;20063;-59
2022/07/09 08:51:58;;;;;;;0.73;0.40;;;;;;;;;;4716085;30;20084;-59
2022/07/09 08:54:27;;;;;;;1.73;0.50;;;;;;;;;;4716261;30;20044;-59
2022/07/09 08:56:55;;;;;;;1.00;0.50;;;;;;;;;;4715623;30;20061;-55
2022/07/09 08:59:22;;;;;;;5.53;0.80;;;;;;;;;;4709068;30;20421;-60
2022/07/09 09:01:50;;;;;;;3.35;0.80;;;;;;;;;;4715953;30;20041;-59
2022/07/09 09:04:18;;;;;;;2.03;0.80;;;;;;;;;;4715640;30;20048;-59
2022/07/09 09:06:45;;;;;;;1.35;0.73;;;;;;;;;;4716382;30;20087;-58
2022/07/09 09:09:18;;;;;;;1.92;0.82;;;;;;;;;;4717320;30;20099;-59
2022/07/09 09:11:49;;;;;;;0.77;0.50;;;;;;;;;;4717023;30;20076;-59
2022/07/09 09:14:23;;;;;;;2.78;0.70;;;;;;;;;;4716581;30;20498;-59
2022/07/09 09:16:51;;;;;;;1.33;0.60;;;;;;;;;;4717129;30;20080;-58
2022/07/09 09:19:18;;;;;;;1.30;0.70;;;;;;;;;;4716391;30;20078;-59
2022/07/09 09:21:51;;;;;;;2.65;0.80;;;;;;;;;;4715340;30;20076;-59
2022/07/09 09:24:22;;;;;;;2.15;0.90;;;;;;;;;;4715302;30;20045;-59
2022/07/09 09:26:50;;;;;;;2.97;0.80;;;;;;;;;;4715531;30;20053;-59
2022/07/09 09:29:17;;;;;;;0.98;0.50;;;;;;;;;;4700026;30;20110;-58
2022/07/09 09:31:46;;;;;;;2.42;0.68;;;;;;;;;;4715385;30;20061;-57
2022/07/09 09:34:17;;;;;;;1.42;0.60;;;;;;;;;;4715253;30;20055;-58
2022/07/09 09:36:54;;;;;;;2.72;0.60;;;;;;;;;;4714807;30;20588;-55
2022/07/09 09:39:23;;;;;;;2.05;0.47;;;;;;;;;;4715181;30;20049;-59
2022/07/09 09:41:58;;;;;;;1.23;0.50;;;;;;;;;;4714503;30;20053;-59
2022/07/09 09:44:39;;;;;;;3.95;0.50;;;;;;;;;;4715117;30;20084;-59
2022/07/09 09:47:10;;;;;;;1.67;0.50;;;;;;;;;;4714780;30;20048;-59
2022/07/09 09:49:38;;;;;;;0.77;0.38;;;;;;;;;;4716159;30;20123;-59
2022/07/09 09:52:08;;;;;;;0.50;0.28;;;;;;;;;;4749652;30;20406;-59
2022/07/09 09:54:38;;;;;;;1.17;0.43;;;;;;;;;;4749767;30;20063;-58
2022/07/09 09:57:10;;;;;;;2.45;0.50;;;;;;;;;;4749761;30;20063;-59
2022/07/09 09:59:39;;;;;;;1.58;0.35;;;;;;;;;;4749735;30;20398;-59
2022/07/09 10:02:09;;;;;;;2.13;0.40;;;;;;;;;;4749670;30;20425;-60
2022/07/09 10:04:38;;;;;;;0.50;0.40;;;;;;;;;;4750188;30;20048;-59
2022/07/09 10:07:07;;;;;;;0.70;0.43;;;;;;;;;;4749406;30;20052;-59
2022/07/09 10:09:34;;;;;;;1.23;0.40;;;;;;;;;;4749898;30;20052;-59
2022/07/09 10:12:02;;;;;;;1.00;0.50;;;;;;;;;;4749477;30;20283;-59
2022/07/09 10:14:34;;;;;;;1.75;0.40;;;;;;;;;;4749809;30;20080;-60
2022/07/09 10:17:17;;;;;;;1.75;0.30;;;;;;;;;;4732454;30;20084;-59
2022/07/09 10:19:55;;;;;;;1.23;0.60;;;;;;;;;;4732008;30;20060;-55
2022/07/09 10:22:34;;;;;;;1.02;0.40;;;;;;;;;;4724520;30;20098;-59
2022/07/09 10:25:02;;;;;;;4.35;1.60;;;;;;;;;;4731763;30;20052;-59
2022/07/09 10:27:41;;;;;;;2.15;0.40;;;;;;;;;;4731710;30;20072;-59
2022/07/09 10:30:21;;;;;;;1.63;0.57;;;;;;;;;;4731932;30;20136;-58
2022/07/09 10:33:02;;;;;;;1.65;0.73;;;;;;;;;;4731116;30;20102;-59
2022/07/09 10:35:31;;;;;;;2.03;0.57;;;;;;;;;;4732049;30;20053;-59
2022/07/09 10:37:59;;;;;;;1.05;0.40;;;;;;;;;;4731666;30;20133;-59
2022/07/09 10:40:37;;;;;;;2.20;0.38;;;;;;;;;;4731860;30;20131;-56
2022/07/09 10:43:05;;;;;;;1.27;0.35;;;;;;;;;;4731876;30;20143;-59
2022/07/09 10:45:44;;;;;;;2.25;0.40;;;;;;;;;;4733150;30;20478;-59
2022/07/09 10:48:13;;;;;;;3.10;0.30;;;;;;;;;;4733611;30;20477;-60
2022/07/09 10:50:43;;;;;;;1.42;0.40;;;;;;;;;;4741565;30;20082;-58
2022/07/09 10:53:11;;;;;;;1.58;0.50;;;;;;;;;;4750822;30;20052;-59
2022/07/09 10:55:46;;;;;;;0.70;0.40;;;;;;;;;;4750795;30;20555;-59
2022/07/09 10:58:18;;;;;;;6.38;0.90;;;;;;;;;;4750610;30;20078;-59
2022/07/09 11:00:58;;;;;;;0.52;0.43;;;;;;;;;;4751014;30;20421;-59
2022/07/09 11:03:26;;;;;;;1.85;0.52;;;;;;;;;;4743769;30;20044;-59
2022/07/09 11:05:54;;;;;;;0.70;0.45;;;;;;;;;;4750792;30;20060;-59
2022/07/09 11:08:22;;;;;;;1.65;0.85;;;;;;;;;;4750475;30;20080;-59
2022/07/09 11:10:49;;;;;;;1.15;0.40;;;;;;;;;;4730204;30;20768;-52
2022/07/09 11:13:17;;;;;;;0.85;0.60;;;;;;;;;;4748949;30;20141;-58
2022/07/09 11:15:44;;;;;;;5.13;0.50;;;;;;;;;;4749280;30;20452;-53
2022/07/09 11:18:15;;;;;;;2.00;0.77;;;;;;;;;;4750838;30;20044;-59
2022/07/09 11:20:45;;;;;;;0.98;0.52;;;;;;;;;;4750891;30;20052;-59
2022/07/09 11:23:16;;;;;;;2.13;0.80;;;;;;;;;;4750619;30;20040;-59
2022/07/09 11:25:44;;;;;;;0.98;0.55;;;;;;;;;;4750074;30;20127;-59
2022/07/09 11:28:23;;;;;;;1.85;0.50;;;;;;;;;;4750023;30;20097;-52
2022/07/09 11:31:04;;;;;;;2.13;0.80;;;;;;;;;;4750500;30;20152;-60
2022/07/09 11:36:19;;;;;;;1.63;0.90;;;;;;;;;;4750520;30;20041;-60
2022/07/09 11:38:51;;;;;;;1.20;0.80;;;;;;;;;;4750225;30;20056;-60
2022/07/09 11:41:20;;;;;;;2.03;0.80;;;;;;;;;;4750176;30;20109;-60
2022/07/09 11:43:51;;;;;;;1.52;0.80;;;;;;;;;;4751548;30;20130;-59
2022/07/09 11:46:20;;;;;;;3.53;1.05;;;;;;;;;;4753560;30;20173;-60
2022/07/09 11:48:54;;;;;;;2.53;0.82;;;;;;;;;;4753614;30;20114;-59
2022/07/09 11:51:33;;;;;;;1.73;0.77;;;;;;;;;;4750492;30;20048;-59
2022/07/09 11:54:01;;;;;;;2.03;0.70;;;;;;;;;;4753493;30;20509;-59
2022/07/09 11:56:47;;;;;;;1.35;0.60;;;;;;;;;;4753580;30;20048;-59
2022/07/09 11:59:30;;;;;;;2.20;0.55;;;;;;;;;;4753537;30;20501;-53
2022/07/09 12:02:00;;;;;;;1.75;0.85;;;;;;;;;;4753261;30;20079;-59
2022/07/09 12:04:30;;;;;;;1.73;0.90;;;;;;;;;;4753594;30;20059;-58
2022/07/09 12:06:58;;;;;;;2.15;0.70;;;;;;;;;;4753647;30;20151;-59
2022/07/09 12:09:49;;;;;;;3.15;0.82;;;;;;;;;;4753300;30;20102;-60
2022/07/09 12:12:23;;;;;;;4.32;0.90;;;;;;;;;;4753070;30;20052;-59
2022/07/09 12:14:50;;;;;;;1.98;0.80;;;;;;;;;;4752869;30;20052;-58
2022/07/09 12:17:29;;;;;;;1.30;0.90;;;;;;;;;;4753038;30;20048;-59
2022/07/09 12:19:57;;;;;;;1.88;0.70;;;;;;;;;;4753188;30;20079;-56
2022/07/09 12:22:25;;;;;;;2.88;1.02;;;;;;;;;;4752792;30;20450;-60
2022/07/09 12:24:53;;;;;;;2.00;1.00;;;;;;;;;;4753165;30;20044;-59
2022/07/09 12:27:20;;;;;;;1.30;0.70;;;;;;;;;;4753102;30;20409;-59
2022/07/09 12:29:50;;;;;;;1.98;0.70;;;;;;;;;;4752702;30;20047;-59
2022/07/09 12:32:17;;;;;;;1.10;0.60;;;;;;;;;;4752930;30;20052;-59
2022/07/09 12:34:44;;;;;;;1.70;0.60;;;;;;;;;;4752902;30;20123;-59
2022/07/09 12:37:11;;;;;;;4.50;1.00;;;;;;;;;;4752637;30;20386;-59
2022/07/09 12:39:38;;;;;;;3.33;0.70;;;;;;;;;;4752756;30;20106;-58
2022/07/09 12:42:06;;;;;;;0.77;0.40;;;;;;;;;;4752668;30;20063;-60
2022/07/09 12:44:33;;;;;;;1.55;0.60;;;;;;;;;;4752603;30;20055;-59
2022/07/09 12:47:00;;;;;;;3.65;0.80;;;;;;;;;;4752715;30;20052;-59
2022/07/09 12:49:27;;;;;;;1.00;0.57;;;;;;;;;;4736635;30;20525;-58
2022/07/09 12:51:55;;;;;;;1.75;0.43;;;;;;;;;;4752440;30;20137;-59
2022/07/09 12:54:22;;;;;;;0.73;0.50;;;;;;;;;;4745547;30;20056;-59
2022/07/09 12:56:50;;;;;;;4.47;0.50;;;;;;;;;;4751947;30;20420;-59
2022/07/09 12:59:36;;;;;;;4.53;0.50;;;;;;;;;;4752726;30;20436;-59
2022/07/09 13:02:05;;;;;;;1.05;0.45;;;;;;;;;;4752124;30;20517;-59
2022/07/09 13:04:32;;;;;;;3.22;0.32;;;;;;;;;;4752661;30;20052;-60
2022/07/09 13:07:00;;;;;;;3.50;0.40;;;;;;;;;;4752453;30;20059;-59
2022/07/09 13:09:27;;;;;;;2.60;0.30;;;;;;;;;;4751728;30;20513;-59
2022/07/09 13:11:55;;;;;;;0.75;0.40;;;;;;;;;;4752488;30;20048;-59
2022/07/09 13:14:22;;;;;;;0.77;0.40;;;;;;;;;;4752248;30;20131;-59
2022/07/09 13:16:49;;;;;;;1.25;0.30;;;;;;;;;;4752174;30;20040;-59
2022/07/09 13:19:36;;;;;;;1.45;0.30;;;;;;;;;;4739543;30;20496;-59
2022/07/09 13:22:03;;;;;;;0.50;0.38;;;;;;;;;;4752219;30;20044;-59
2022/07/09 13:24:31;;;;;;;0.63;0.30;;;;;;;;;;4751469;30;20106;-59
2022/07/09 13:26:58;;;;;;;1.42;0.40;;;;;;;;;;4751733;30;20087;-59
2022/07/09 13:29:25;;;;;;;1.38;0.57;;;;;;;;;;4736173;30;20460;-59
2022/07/09 13:31:55;;;;;;;1.92;0.40;;;;;;;;;;4750346;30;20048;-59
2022/07/09 13:34:22;;;;;;;1.88;0.40;;;;;;;;;;4750453;30;20052;-59
2022/07/09 13:36:50;;;;;;;2.78;0.32;;;;;;;;;;4750218;30;20460;-56
2022/07/09 13:39:17;;;;;;;0.57;0.30;;;;;;;;;;4750374;30;20044;-59
2022/07/09 13:41:46;;;;;;;0.93;0.50;;;;;;;;;;4750476;30;20517;-59
2022/07/09 13:44:13;;;;;;;2.08;0.35;;;;;;;;;;4750342;30;20063;-60
2022/07/09 13:46:40;;;;;;;0.73;0.30;;;;;;;;;;4750345;30;20135;-59
2022/07/09 13:49:08;;;;;;;1.95;0.70;;;;;;;;;;4749634;30;20056;-59
2022/07/09 13:51:35;;;;;;;1.55;0.70;;;;;;;;;;4747242;30;20532;-59
2022/07/09 13:54:02;;;;;;;0.40;0.30;;;;;;;;;;4750024;30;20083;-59
2022/07/09 13:56:32;;;;;;;5.15;0.70;;;;;;;;;;4750126;30;20506;-59
2022/07/09 13:58:59;;;;;;;2.97;0.70;;;;;;;;;;4751197;30;20066;-59
2022/07/09 14:01:27;;;;;;;1.65;0.70;;;;;;;;;;4751049;30;20506;-59
2022/07/09 14:03:55;;;;;;;2.20;0.65;;;;;;;;;;4751667;30;20060;-60
2022/07/09 14:06:24;;;;;;;1.75;0.70;;;;;;;;;;4750575;30;20109;-59
2022/07/09 14:09:11;;;;;;;2.95;0.63;;;;;;;;;;4751570;30;20521;-59
2022/07/09 14:11:38;;;;;;;1.70;0.80;;;;;;;;;;4751473;30;20529;-60
2022/07/09 14:14:05;;;;;;;4.63;1.15;;;;;;;;;;4750980;30;20090;-59
2022/07/09 14:16:33;;;;;;;3.15;0.88;;;;;;;;;;4751198;30;20106;-58
2022/07/09 14:19:00;;;;;;;1.70;0.73;;;;;;;;;;4751168;30;20573;-59
2022/07/09 14:21:28;;;;;;;1.48;0.70;;;;;;;;;;4751128;30;20050;-59
2022/07/09 14:23:55;;;;;;;1.45;0.80;;;;;;;;;;4750961;30;20387;-58
2022/07/09 14:26:23;;;;;;;3.13;1.02;;;;;;;;;;4750393;30;20617;-57
2022/07/09 14:28:51;;;;;;;4.13;0.90;;;;;;;;;;4751362;30;20048;-53
2022/07/09 14:31:19;;;;;;;6.28;1.00;;;;;;;;;;4751264;30;20044;-59
2022/07/09 14:33:46;;;;;;;2.40;0.90;;;;;;;;;;4751075;30;20048;-59
2022/07/09 14:36:14;;;;;;;6.15;1.40;;;;;;;;;;4751336;30;20408;-55
2022/07/09 14:38:41;;;;;;;1.48;0.85;;;;;;;;;;4750902;30;20057;-56
2022/07/09 14:41:08;;;;;;;5.25;1.10;;;;;;;;;;4751117;30;20048;-54
2022/07/09 14:43:38;;;;;;;4.75;1.20;;;;;;;;;;4751063;30;20083;-55
2022/07/09 14:46:07;;;;;;;4.53;1.42;;;;;;;;;;4750760;30;20127;-54
2022/07/09 14:48:35;;;;;;;3.47;1.30;;;;;;;;;;4750505;30;20476;-54
2022/07/09 14:51:03;;;;;;;3.05;1.30;;;;;;;;;;4735212;30;20052;-60
2022/07/09 14:53:30;;;;;;;3.30;1.20;;;;;;;;;;4750788;30;20429;-59
2022/07/09 14:55:58;;;;;;;1.52;0.95;;;;;;;;;;4750250;30;20533;-59